createdAt,value
2022-09-29T00:00:39.642Z,94040.47
2022-09-29T00:03:06.346Z,94047.72
2022-09-29T00:05:33.354Z,94050.59
2022-09-29T00:07:59.933Z,94045.34
2022-09-29T00:10:26.430Z,94045.81
2022-09-29T00:12:52.852Z,94048.00
2022-09-29T00:15:19.405Z,94037.72
2022-09-29T00:18:02.992Z,94035.31
2022-09-29T00:20:32.792Z,94026.88
2022-09-29T00:22:59.261Z,94026.97
2022-09-29T00:25:25.903Z,94024.22
2022-09-29T00:27:52.488Z,94029.59
2022-09-29T00:30:19.008Z,94029.63
2022-09-29T00:32:45.557Z,94029.28
2022-09-29T00:35:12.043Z,94020.84
2022-09-29T00:37:38.619Z,94022.81
2022-09-29T00:40:05.848Z,94020.31
2022-09-29T00:42:32.287Z,94008.56
2022-09-29T00:45:16.592Z,94009.63
2022-09-29T00:47:47.612Z,94011.66
2022-09-29T00:50:30.823Z,94014.59
2022-09-29T00:53:02.499Z,94002.13
2022-09-29T00:55:38.588Z,94008.72
2022-09-29T00:58:11.132Z,94009.72
2022-09-29T01:00:37.971Z,94003.28
2022-09-29T01:03:18.700Z,94004.28
2022-09-29T01:05:54.211Z,93997.88
2022-09-29T01:08:29.223Z,94007.81
2022-09-29T01:10:59.645Z,94002.66
2022-09-29T01:13:26.152Z,93998.28
2022-09-29T01:15:52.689Z,93988.31
2022-09-29T01:18:19.327Z,93990.56
2022-09-29T01:20:54.000Z,93982.53
2022-09-29T01:23:38.408Z,93978.13
2022-09-29T01:26:39.467Z,93988.91
2022-09-29T01:29:05.884Z,93977.50
2022-09-29T01:32:15.934Z,93980.53
2022-09-29T01:34:48.350Z,93976.09
2022-09-29T01:37:43.592Z,93976.44
2022-09-29T01:40:32.702Z,93981.59
2022-09-29T01:43:14.162Z,93966.41
2022-09-29T01:45:59.642Z,93974.38
2022-09-29T01:48:32.863Z,93974.81
2022-09-29T01:51:07.828Z,93969.84
2022-09-29T01:53:42.497Z,93972.63
2022-09-29T01:56:20.683Z,93970.63
2022-09-29T01:58:53.041Z,93976.31
2022-09-29T02:01:24.075Z,93974.72
2022-09-29T02:04:21.372Z,93968.50
2022-09-29T02:07:01.656Z,93968.59
2022-09-29T02:09:36.443Z,93977.88
2022-09-29T02:12:04.808Z,93970.06
2022-09-29T02:14:41.966Z,93969.97
2022-09-29T02:17:15.619Z,93986.22
2022-09-29T02:19:44.113Z,93979.31
2022-09-29T02:22:10.702Z,93972.28
2022-09-29T02:24:37.175Z,93972.84
2022-09-29T02:27:05.027Z,93972.66
2022-09-29T02:29:34.771Z,93973.75
2022-09-29T02:32:03.119Z,93982.50
2022-09-29T02:34:36.526Z,93980.88
2022-09-29T02:37:18.723Z,93982.84
2022-09-29T02:40:01.513Z,93977.16
2022-09-29T02:42:57.801Z,93974.22
2022-09-29T02:45:41.276Z,93972.25
2022-09-29T02:48:22.711Z,93976.88
2022-09-29T02:51:09.984Z,93965.97
2022-09-29T02:54:05.518Z,93968.66
2022-09-29T02:56:54.338Z,93966.22
2022-09-29T02:59:35.502Z,93963.31
2022-09-29T03:02:01.989Z,93957.00
2022-09-29T03:04:28.609Z,93955.38
2022-09-29T03:06:55.102Z,93956.66
2022-09-29T03:09:21.980Z,93962.88
2022-09-29T03:11:48.597Z,93966.78
2022-09-29T03:14:15.098Z,93966.31
2022-09-29T03:16:41.652Z,93965.28
2022-09-29T03:19:08.101Z,93972.31
2022-09-29T03:21:34.670Z,93971.72
2022-09-29T03:24:01.496Z,93979.22
2022-09-29T03:26:27.927Z,93970.44
2022-09-29T03:28:54.395Z,93975.19
2022-09-29T03:31:20.919Z,93973.56
2022-09-29T03:33:47.597Z,93975.03
2022-09-29T03:36:14.130Z,93971.25
2022-09-29T03:38:40.651Z,93969.41
2022-09-29T03:41:07.613Z,93968.13
2022-09-29T03:43:34.220Z,93972.84
2022-09-29T03:46:00.857Z,93960.50
2022-09-29T03:48:27.355Z,93964.88
2022-09-29T03:50:53.950Z,93963.75
2022-09-29T03:53:20.470Z,93960.59
2022-09-29T03:55:48.898Z,93959.44
2022-09-29T03:58:16.774Z,93968.50
2022-09-29T04:00:43.718Z,93961.78
2022-09-29T04:03:10.719Z,93957.78
2022-09-29T04:05:37.150Z,93960.00
2022-09-29T04:08:04.288Z,93961.50
2022-09-29T04:10:31.020Z,93956.06
2022-09-29T04:12:57.446Z,93954.16
2022-09-29T04:15:23.875Z,93959.78
2022-09-29T04:17:50.311Z,93963.28
2022-09-29T04:20:16.852Z,93963.59
2022-09-29T04:22:43.290Z,93962.66
2022-09-29T04:25:10.035Z,93959.41
2022-09-29T04:27:36.495Z,93961.19
2022-09-29T04:30:03.663Z,93960.00
2022-09-29T04:32:30.200Z,93957.28
2022-09-29T04:34:56.647Z,93960.13
2022-09-29T04:37:23.490Z,93961.38
2022-09-29T04:39:49.966Z,93952.91
2022-09-29T04:42:16.408Z,93954.44
2022-09-29T04:44:42.850Z,93956.50
2022-09-29T04:47:09.344Z,93955.34
2022-09-29T04:49:35.778Z,93958.34
2022-09-29T04:52:02.234Z,93952.84
2022-09-29T04:54:36.928Z,93957.63
2022-09-29T04:57:04.759Z,93958.78
2022-09-29T04:59:31.199Z,93959.19
2022-09-29T05:01:58.615Z,93959.34
2022-09-29T05:04:25.165Z,93962.44
2022-09-29T05:06:51.599Z,93970.22
2022-09-29T05:09:19.265Z,93969.63
2022-09-29T05:11:48.224Z,93969.00
2022-09-29T05:14:14.664Z,93964.00
2022-09-29T05:16:41.158Z,93962.44
2022-09-29T05:19:07.637Z,93970.50
2022-09-29T05:21:34.083Z,93966.72
2022-09-29T05:24:00.625Z,93964.59
2022-09-29T05:26:27.072Z,93956.41
2022-09-29T05:28:53.528Z,93983.41
2022-09-29T05:31:20.008Z,93976.69
2022-09-29T05:33:46.477Z,93976.84
2022-09-29T05:36:13.658Z,93975.59
2022-09-29T05:38:40.833Z,93985.19
2022-09-29T05:41:11.354Z,93985.63
2022-09-29T05:43:38.741Z,93992.69
2022-09-29T05:46:07.449Z,93996.50
2022-09-29T05:48:35.591Z,93991.34
2022-09-29T05:51:10.147Z,93995.34
2022-09-29T05:53:36.881Z,93993.31
2022-09-29T05:56:07.427Z,93994.78
2022-09-29T05:58:34.449Z,93993.53
2022-09-29T06:01:05.771Z,94001.81
2022-09-29T06:03:34.016Z,94006.03
2022-09-29T06:06:14.839Z,94008.97
2022-09-29T06:08:42.430Z,94007.50
2022-09-29T06:11:12.112Z,94008.50
2022-09-29T06:13:40.518Z,94010.13
2022-09-29T06:16:08.762Z,94015.38
2022-09-29T06:18:36.352Z,94020.88
2022-09-29T06:21:11.897Z,94029.41
2022-09-29T06:23:39.301Z,94025.69
2022-09-29T06:26:08.379Z,94026.19
2022-09-29T06:28:35.446Z,94025.59
2022-09-29T06:31:05.347Z,94016.41
2022-09-29T06:33:33.797Z,94029.16
2022-09-29T06:36:06.671Z,94035.94
2022-09-29T06:38:33.726Z,94032.22
2022-09-29T06:41:00.289Z,94035.44
2022-09-29T06:43:28.236Z,94042.84
2022-09-29T06:45:54.777Z,94036.81
2022-09-29T06:48:21.298Z,94032.22
2022-09-29T06:50:49.992Z,94033.84
2022-09-29T06:53:25.699Z,94041.47
2022-09-29T06:55:56.350Z,94041.50
2022-09-29T06:58:23.913Z,94042.91
2022-09-29T07:00:50.894Z,94051.81
2022-09-29T07:03:17.549Z,94052.88
2022-09-29T07:05:52.739Z,94053.25
2022-09-29T07:08:28.706Z,94051.81
2022-09-29T07:10:55.611Z,94053.13
2022-09-29T07:13:22.027Z,94059.09
2022-09-29T07:15:48.521Z,94060.94
2022-09-29T07:18:14.971Z,94064.34
2022-09-29T07:20:41.406Z,94077.31
2022-09-29T07:23:07.886Z,94076.69
2022-09-29T07:25:50.953Z,94090.50
2022-09-29T07:28:17.902Z,94081.13
2022-09-29T07:30:44.420Z,94082.28
2022-09-29T07:33:10.902Z,94094.00
2022-09-29T07:35:39.995Z,94082.69
2022-09-29T07:38:06.721Z,94090.22
2022-09-29T07:40:33.318Z,94102.69
2022-09-29T07:42:59.782Z,94102.28
2022-09-29T07:45:26.419Z,94105.59
2022-09-29T07:47:52.967Z,94116.28
2022-09-29T07:50:19.432Z,94105.88
2022-09-29T07:52:49.654Z,94112.06
2022-09-29T07:55:16.147Z,94112.97
2022-09-29T07:57:42.590Z,94120.16
2022-09-29T08:00:09.625Z,94121.34
2022-09-29T08:02:36.154Z,94127.47
2022-09-29T08:05:07.360Z,94139.69
2022-09-29T08:07:34.138Z,94125.44
2022-09-29T08:10:12.898Z,94143.38
2022-09-29T08:12:44.247Z,94149.34
2022-09-29T08:15:11.036Z,94150.00
2022-09-29T08:17:37.489Z,94144.31
2022-09-29T08:20:04.065Z,94150.00
2022-09-29T08:22:30.521Z,94158.97
2022-09-29T08:24:56.942Z,94149.34
2022-09-29T08:27:23.398Z,94152.81
2022-09-29T08:29:49.823Z,94150.25
2022-09-29T08:32:16.242Z,94143.28
2022-09-29T08:34:42.686Z,94148.41
2022-09-29T08:37:09.128Z,94144.78
2022-09-29T08:39:35.582Z,94148.41
2022-09-29T08:42:26.241Z,94147.00
2022-09-29T08:45:12.946Z,94142.09
2022-09-29T08:47:48.465Z,94140.94
2022-09-29T08:50:27.698Z,94146.53
2022-09-29T08:53:05.546Z,94145.53
2022-09-29T08:56:02.825Z,94147.81
2022-09-29T08:58:31.308Z,94145.44
2022-09-29T09:01:15.821Z,94156.09
2022-09-29T09:04:13.265Z,94159.78
2022-09-29T09:07:03.118Z,94155.25
2022-09-29T09:10:19.964Z,94158.28
2022-09-29T09:13:09.002Z,94157.25
2022-09-29T09:16:02.076Z,94150.78
2022-09-29T09:18:50.102Z,94160.22
2022-09-29T09:21:49.034Z,94160.41
2022-09-29T09:24:43.013Z,94153.66
2022-09-29T09:27:20.012Z,94149.41
2022-09-29T09:29:50.424Z,94145.50
2022-09-29T09:32:30.571Z,94149.25
2022-09-29T09:35:23.655Z,94158.06
2022-09-29T09:37:54.093Z,94151.88
2022-09-29T09:40:26.557Z,94151.19
2022-09-29T09:43:12.284Z,94150.72
2022-09-29T09:46:02.202Z,94157.94
2022-09-29T09:49:00.922Z,94159.03
2022-09-29T09:51:39.817Z,94157.56
2022-09-29T09:54:33.077Z,94161.41
2022-09-29T09:57:32.317Z,94157.19
2022-09-29T10:00:21.769Z,94161.19
2022-09-29T10:02:54.442Z,94158.22
2022-09-29T10:05:24.065Z,94157.50
2022-09-29T10:07:52.436Z,94159.59
2022-09-29T10:10:30.083Z,94161.56
2022-09-29T10:13:04.128Z,94162.28
2022-09-29T10:16:00.531Z,94165.69
2022-09-29T10:18:37.491Z,94165.44
2022-09-29T10:21:03.982Z,94158.00
2022-09-29T10:23:36.501Z,94158.50
2022-09-29T10:26:07.994Z,94164.94
2022-09-29T10:28:50.366Z,94160.44
2022-09-29T10:31:29.633Z,94162.72
2022-09-29T10:34:00.053Z,94165.66
2022-09-29T10:36:53.801Z,94159.53
2022-09-29T10:39:44.319Z,94158.09
2022-09-29T10:42:26.880Z,94161.97
2022-09-29T10:45:13.495Z,94162.22
2022-09-29T10:47:40.999Z,94159.38
2022-09-29T10:50:20.396Z,94161.53
2022-09-29T10:53:03.724Z,94160.94
2022-09-29T10:55:35.995Z,94160.69
2022-09-29T10:58:37.465Z,94156.78
2022-09-29T11:01:15.392Z,94155.16
2022-09-29T11:03:57.869Z,94154.22
2022-09-29T11:06:42.979Z,94162.59
2022-09-29T11:09:13.553Z,94161.72
2022-09-29T11:11:59.955Z,94166.72
2022-09-29T11:14:36.425Z,94168.66
2022-09-29T11:17:22.242Z,94167.00
2022-09-29T11:19:49.675Z,94176.72
2022-09-29T11:22:36.037Z,94180.72
2022-09-29T11:25:26.264Z,94181.78
2022-09-29T11:28:24.746Z,94181.97
2022-09-29T11:31:12.865Z,94180.53
2022-09-29T11:34:11.878Z,94177.53
2022-09-29T11:36:53.069Z,94186.63
2022-09-29T11:39:28.428Z,94183.78
2022-09-29T11:42:09.365Z,94185.50
2022-09-29T11:44:46.227Z,94184.47
2022-09-29T11:47:12.644Z,94187.56
2022-09-29T11:50:06.959Z,94181.91
2022-09-29T11:52:36.092Z,94180.44
2022-09-29T11:55:12.259Z,94177.66
2022-09-29T11:58:19.546Z,94179.19
2022-09-29T12:01:12.858Z,94178.31
2022-09-29T12:03:42.703Z,94181.97
2022-09-29T12:06:52.759Z,94168.22
2022-09-29T12:09:57.267Z,94183.19
2022-09-29T12:16:04.499Z,94184.34
2022-09-29T12:18:51.948Z,94184.16
2022-09-29T12:21:31.660Z,94179.00
2022-09-29T12:24:03.546Z,94185.38
2022-09-29T12:26:33.556Z,94179.66
2022-09-29T12:29:25.244Z,94178.25
2022-09-29T12:31:58.275Z,94178.47
2022-09-29T12:34:40.076Z,94181.25
2022-09-29T12:37:17.303Z,94177.91
2022-09-29T12:40:01.693Z,94195.50
2022-09-29T12:43:00.611Z,94196.09
2022-09-29T12:45:59.551Z,94193.53
2022-09-29T12:48:53.776Z,94195.75
2022-09-29T12:51:32.994Z,94194.13
2022-09-29T12:54:21.333Z,94192.50
2022-09-29T12:56:56.249Z,94192.44
2022-09-29T12:59:57.765Z,94197.69
2022-09-29T13:02:36.337Z,94193.78
2022-09-29T13:05:17.836Z,94193.00
2022-09-29T13:08:19.451Z,94184.94
2022-09-29T13:11:09.009Z,94182.44
2022-09-29T13:13:48.266Z,94180.59
2022-09-29T13:16:32.894Z,94181.16
2022-09-29T13:19:29.595Z,94184.16
2022-09-29T13:22:27.625Z,94197.88
2022-09-29T13:25:32.524Z,94192.28
2022-09-29T13:28:00.541Z,94188.00
2022-09-29T13:30:37.614Z,94188.13
2022-09-29T13:33:22.864Z,94191.47
2022-09-29T13:35:51.922Z,94184.94
2022-09-29T13:38:33.050Z,94188.59
2022-09-29T13:41:13.614Z,94191.69
2022-09-29T13:44:00.018Z,94187.88
2022-09-29T13:46:29.451Z,94200.09
2022-09-29T13:49:10.989Z,94197.16
2022-09-29T13:51:45.332Z,94196.69
2022-09-29T13:54:22.467Z,94199.50
2022-09-29T13:57:05.476Z,94198.38
2022-09-29T13:59:33.237Z,94197.69
2022-09-29T14:02:00.795Z,94198.91
2022-09-29T14:04:49.345Z,94211.94
2022-09-29T14:07:35.267Z,94209.75
2022-09-29T14:10:27.775Z,94208.50
2022-09-29T14:13:10.923Z,94212.00
2022-09-29T14:15:44.577Z,94205.69
2022-09-29T14:18:38.108Z,94211.41
2022-09-29T14:21:10.548Z,94209.81
2022-09-29T14:23:46.328Z,94213.38
2022-09-29T14:26:41.455Z,94208.72
2022-09-29T14:29:40.245Z,94207.28
2022-09-29T14:32:19.427Z,94204.91
2022-09-29T14:34:48.658Z,94208.97
2022-09-29T14:37:21.740Z,94208.56
2022-09-29T14:39:50.472Z,94212.84
2022-09-29T14:42:17.241Z,94212.13
2022-09-29T14:44:43.765Z,94212.09
2022-09-29T14:47:22.294Z,94218.06
2022-09-29T14:50:21.464Z,94217.75
2022-09-29T14:53:21.384Z,94223.31
2022-09-29T14:56:17.043Z,94224.28
2022-09-29T14:58:55.870Z,94227.56
2022-09-29T15:01:30.429Z,94227.16
2022-09-29T15:04:06.109Z,94225.56
2022-09-29T15:06:32.926Z,94233.63
2022-09-29T15:09:04.373Z,94226.44
2022-09-29T15:11:54.501Z,94237.88
2022-09-29T15:14:20.900Z,94232.31
2022-09-29T15:17:07.686Z,94233.31
2022-09-29T15:20:05.367Z,94230.69
2022-09-29T15:22:49.645Z,94233.91
2022-09-29T15:25:18.938Z,94234.84
2022-09-29T15:27:51.143Z,94229.31
2022-09-29T15:30:21.175Z,94228.16
2022-09-29T15:32:50.147Z,94235.09
2022-09-29T15:35:26.149Z,94221.88
2022-09-29T15:38:10.015Z,94227.19
2022-09-29T15:40:37.439Z,94235.25
2022-09-29T15:43:19.863Z,94239.53
2022-09-29T15:45:53.892Z,94237.19
2022-09-29T15:48:20.369Z,94241.81
2022-09-29T15:50:46.791Z,94235.41
2022-09-29T15:53:13.684Z,94246.22
2022-09-29T15:55:42.104Z,94245.66
2022-09-29T15:58:26.952Z,94252.03
2022-09-29T16:01:06.816Z,94251.13
2022-09-29T16:03:39.531Z,94248.09
2022-09-29T16:06:15.742Z,94256.97
2022-09-29T16:08:53.011Z,94256.06
2022-09-29T16:11:26.308Z,94261.66
2022-09-29T16:14:09.007Z,94255.22
2022-09-29T16:16:41.628Z,94259.41
2022-09-29T16:19:24.585Z,94261.28
2022-09-29T16:21:55.538Z,94258.56
2022-09-29T16:24:28.957Z,94269.38
2022-09-29T16:26:58.243Z,94264.69
2022-09-29T16:29:24.628Z,94275.88
2022-09-29T16:31:52.168Z,94269.88
2022-09-29T16:34:21.703Z,94267.78
2022-09-29T16:36:54.085Z,94280.06
2022-09-29T16:39:30.600Z,94275.06
2022-09-29T16:41:59.897Z,94284.22
2022-09-29T16:44:42.572Z,94290.84
2022-09-29T16:47:17.334Z,94296.13
2022-09-29T16:49:56.909Z,94292.66
2022-09-29T16:52:34.316Z,94303.59
2022-09-29T16:55:17.620Z,94307.13
2022-09-29T16:58:06.403Z,94320.44
2022-09-29T17:00:32.892Z,94314.03
2022-09-29T17:02:59.407Z,94319.91
2022-09-29T17:05:27.498Z,94318.81
2022-09-29T17:08:01.944Z,94324.28
2022-09-29T17:10:29.190Z,94319.09
2022-09-29T17:12:55.627Z,94331.47
2022-09-29T17:15:22.767Z,94328.22
2022-09-29T17:17:50.354Z,94334.72
2022-09-29T17:22:54.708Z,94327.25
2022-09-29T17:25:21.967Z,94328.84
2022-09-29T17:27:48.541Z,94326.69
2022-09-29T17:30:22.445Z,94341.97
2022-09-29T17:32:50.380Z,94342.75
2022-09-29T17:35:19.364Z,94347.66
2022-09-29T17:37:45.941Z,94346.94
2022-09-29T17:40:47.758Z,94359.44
2022-09-29T17:43:14.238Z,94363.69
2022-09-29T17:45:40.782Z,94361.16
2022-09-29T17:48:07.410Z,94363.72
2022-09-29T17:50:38.701Z,94374.69
2022-09-29T17:53:05.154Z,94374.91
2022-09-29T17:55:32.803Z,94384.31
2022-09-29T17:57:59.989Z,94373.91
2022-09-29T18:00:38.381Z,94383.25
2022-09-29T18:03:09.828Z,94381.44
2022-09-29T18:05:37.989Z,94378.81
2022-09-29T18:08:05.188Z,94376.09
2022-09-29T18:10:42.161Z,94383.19
2022-09-29T18:13:09.692Z,94377.13
2022-09-29T18:15:37.445Z,94383.59
2022-09-29T18:18:06.725Z,94378.97
2022-09-29T18:20:35.333Z,94383.81
2022-09-29T18:23:02.408Z,94388.47
2022-09-29T18:25:32.273Z,94384.81
2022-09-29T18:27:59.026Z,94385.22
2022-09-29T18:30:29.097Z,94381.19
2022-09-29T18:32:58.548Z,94394.97
2022-09-29T18:35:36.169Z,94396.19
2022-09-29T18:38:03.479Z,94396.13
2022-09-29T18:40:31.045Z,94398.88
2022-09-29T18:42:57.975Z,94398.88
2022-09-29T18:45:27.978Z,94412.31
2022-09-29T18:47:56.870Z,94416.94
2022-09-29T18:50:26.987Z,94415.56
2022-09-29T18:52:53.694Z,94410.75
2022-09-29T18:55:22.891Z,94423.53
2022-09-29T18:57:50.444Z,94429.03
2022-09-29T19:00:20.071Z,94425.78
2022-09-29T19:02:47.564Z,94417.66
2022-09-29T19:05:17.696Z,94430.19
2022-09-29T19:07:48.909Z,94431.84
2022-09-29T19:10:17.054Z,94431.84
2022-09-29T19:12:44.548Z,94431.84
2022-09-29T19:15:20.159Z,94436.88
2022-09-29T19:17:49.359Z,94432.63
2022-09-29T19:20:17.615Z,94435.84
2022-09-29T19:22:45.008Z,94434.97
2022-09-29T19:25:18.815Z,94433.41
2022-09-29T19:27:46.583Z,94435.47
2022-09-29T19:30:20.562Z,94434.28
2022-09-29T19:32:47.642Z,94448.88
2022-09-29T19:35:18.701Z,94454.56
2022-09-29T19:37:45.803Z,94462.66
2022-09-29T19:40:18.299Z,94470.59
2022-09-29T19:42:44.833Z,94475.63
2022-09-29T19:45:11.695Z,94470.38
2022-09-29T19:47:38.196Z,94481.28
2022-09-29T19:50:06.848Z,94482.50
2022-09-29T19:52:33.288Z,94482.84
2022-09-29T19:54:59.746Z,94484.31
2022-09-29T19:57:26.209Z,94493.03
2022-09-29T19:59:52.810Z,94482.41
2022-09-29T20:02:22.203Z,94482.94
2022-09-29T20:04:48.789Z,94479.84
2022-09-29T20:07:15.258Z,94492.22
2022-09-29T20:09:41.775Z,94491.44
2022-09-29T20:12:08.244Z,94494.31
2022-09-29T20:14:34.706Z,94490.69
2022-09-29T20:17:01.240Z,94487.41
2022-09-29T20:19:29.255Z,94491.47
2022-09-29T20:21:55.715Z,94497.03
2022-09-29T20:24:22.191Z,94507.09
2022-09-29T20:26:50.584Z,94504.53
2022-09-29T20:29:19.272Z,94499.28
2022-09-29T20:31:47.152Z,94506.78
2022-09-29T20:34:14.067Z,94503.34
2022-09-29T20:36:40.616Z,94497.97
2022-09-29T20:39:07.300Z,94500.97
2022-09-29T20:41:33.765Z,94502.41
2022-09-29T20:44:00.265Z,94506.59
2022-09-29T20:46:27.916Z,94511.25
2022-09-29T20:48:57.201Z,94521.28
2022-09-29T20:51:25.634Z,94513.38
2022-09-29T20:54:01.681Z,94517.41
2022-09-29T20:56:31.095Z,94514.59
2022-09-29T20:58:59.903Z,94523.81
2022-09-29T21:01:31.138Z,94514.94
2022-09-29T21:04:00.743Z,94521.88
2022-09-29T21:06:29.493Z,94527.13
2022-09-29T21:08:58.005Z,94526.75
2022-09-29T21:11:25.361Z,94518.19
2022-09-29T21:13:54.694Z,94525.03
2022-09-29T21:16:21.248Z,94521.16
2022-09-29T21:18:47.738Z,94529.66
2022-09-29T21:21:14.697Z,94529.81
2022-09-29T21:23:42.687Z,94531.25
2022-09-29T21:26:14.694Z,94531.31
2022-09-29T21:28:43.906Z,94532.97
2022-09-29T21:31:15.968Z,94535.53
2022-09-29T21:33:42.756Z,94539.94
2022-09-29T21:36:13.359Z,94535.94
2022-09-29T21:38:42.005Z,94537.94
2022-09-29T21:41:15.073Z,94538.75
2022-09-29T21:43:42.380Z,94548.75
2022-09-29T21:46:08.862Z,94551.97
2022-09-29T21:48:35.387Z,94546.00
2022-09-29T21:51:08.234Z,94546.81
2022-09-29T21:53:37.165Z,94544.25
2022-09-29T21:56:11.169Z,94552.84
2022-09-29T21:58:38.384Z,94553.50
2022-09-29T22:01:11.145Z,94559.81
2022-09-29T22:03:40.751Z,94559.25
2022-09-29T22:06:12.655Z,94554.75
2022-09-29T22:08:39.096Z,94557.97
2022-09-29T22:11:06.928Z,94558.38
2022-09-29T22:13:33.586Z,94560.84
2022-09-29T22:16:03.043Z,94548.25
2022-09-29T22:18:41.686Z,94561.03
2022-09-29T22:21:12.186Z,94561.19
2022-09-29T22:23:38.701Z,94564.47
2022-09-29T22:26:10.120Z,94560.00
2022-09-29T22:28:36.863Z,94562.28
2022-09-29T22:31:09.366Z,94565.25
2022-09-29T22:33:37.676Z,94582.53
2022-09-29T22:36:04.678Z,94567.22
2022-09-29T22:38:32.965Z,94577.63
2022-09-29T22:40:59.437Z,94570.41
2022-09-29T22:43:25.915Z,94572.81
2022-09-29T22:45:52.441Z,94565.94
2022-09-29T22:48:19.689Z,94566.44
2022-09-29T22:50:48.677Z,94561.56
2022-09-29T22:53:16.053Z,94555.53
2022-09-29T22:55:42.519Z,94562.44
2022-09-29T22:58:10.342Z,94566.09
2022-09-29T23:00:38.647Z,94562.00
2022-09-29T23:03:06.179Z,94562.84
2022-09-29T23:05:33.431Z,94569.75
2022-09-29T23:08:00.081Z,94574.97
2022-09-29T23:10:26.536Z,94581.56
2022-09-29T23:12:53.012Z,94580.56
2022-09-29T23:15:19.487Z,94583.09
2022-09-29T23:17:45.935Z,94590.06
2022-09-29T23:20:12.532Z,94579.00
2022-09-29T23:22:39.274Z,94577.69
2022-09-29T23:25:06.297Z,94563.13
2022-09-29T23:27:33.509Z,94560.69
2022-09-29T23:29:59.980Z,94553.00
2022-09-29T23:32:26.567Z,94554.66
2022-09-29T23:34:53.054Z,94552.44
2022-09-29T23:37:19.510Z,94555.28
2022-09-29T23:39:45.951Z,94559.56
2022-09-29T23:42:12.430Z,94558.75
2022-09-29T23:44:38.901Z,94550.66
2022-09-29T23:47:05.460Z,94564.44
2022-09-29T23:49:31.953Z,94570.03
2022-09-29T23:52:00.964Z,94568.13
2022-09-29T23:54:28.651Z,94575.63
2022-09-29T23:56:56.830Z,94566.34
2022-09-29T23:59:24.249Z,94572.88
